Hoods Crossroads, Alabama
Current Conditions -  °F | °C
As of 11:55 PM on Saturday 22 Nov 2014 (Local Time) from KGAD Reporting Station
Overcast Overcast  
Wind Chill: 14°   Ceiling: 2700
Heat Index: 14°   Visibility: 10mi
Dew Point:   Wind: 6mph
Humidity: 51%   Direction: 120°ESE
Pressure: 30.1"   Gusts: NA
Location:  33.8959°N, 86.4894°W
Report Text: KGAD 230555Z 12005KT 10SM OVC027 14/04 A3010 RMK AO1 10160 20140 57024
Loading
Personal Weather Stations






























Interactive Weather Map New forecast layout! Learn more

10-Day Weather Forecast

Advertisements
Track Severe Weather on mobile